Time;durP1;ratioP1;P1;durP2;ratioP2;P2;SDS_P1;SDS_P2;PMS_P1;PMS_P2;Temp;Humidity;BMP_temperature;BMP_pressure;BME280_temperature;BME280_humidity;BME280_pressure;Samples;Min_cycle;Max_cycle;Signal;HPM_P1;HPM_P2
2022/03/25 00:01:07;;;;;;;62.20;44.58;;;;;;;8.21;74.77;102776.81;5044217;28;20452;-66
2022/03/25 00:03:33;;;;;;;62.70;44.67;;;;;;;8.07;75.24;102783.19;5064465;28;20112;-66
2022/03/25 00:05:58;;;;;;;61.53;44.90;;;;;;;7.86;76.37;102781.38;5063378;28;20112;-66
2022/03/25 00:08:24;;;;;;;64.95;45.00;;;;;;;7.82;76.99;102787.31;5063421;28;20036;-64
2022/03/25 00:10:49;;;;;;;60.58;43.78;;;;;;;7.80;77.03;102783.72;5064628;28;20020;-64
2022/03/25 00:13:14;;;;;;;60.85;43.75;;;;;;;7.97;77.40;102785.41;5062008;28;20044;-65
2022/03/25 00:15:41;;;;;;;58.83;43.63;;;;;;;7.85;77.91;102779.59;5065471;28;20028;-66
2022/03/25 00:18:06;;;;;;;63.33;44.33;;;;;;;7.90;77.67;102780.69;5062218;28;20021;-65
2022/03/25 00:20:32;;;;;;;63.80;43.78;;;;;;;7.82;77.50;102785.59;5064286;28;20027;-65
2022/03/25 00:22:57;;;;;;;61.70;43.28;;;;;;;7.62;77.61;102787.31;5063083;28;20379;-65
2022/03/25 00:25:23;;;;;;;59.90;43.05;;;;;;;7.69;76.79;102788.50;5062893;28;20037;-65
2022/03/25 00:27:48;;;;;;;60.85;44.38;;;;;;;7.61;77.27;102789.88;5064737;28;20017;-65
2022/03/25 00:30:14;;;;;;;58.63;43.05;;;;;;;7.49;77.55;102785.81;5060852;28;20029;-65
2022/03/25 00:32:40;;;;;;;58.17;41.80;;;;;;;7.59;77.74;102788.91;5065119;28;20028;-65
2022/03/25 00:35:06;;;;;;;60.65;43.38;;;;;;;7.60;77.92;102786.34;5062153;28;20051;-65
2022/03/25 00:37:32;;;;;;;59.25;42.05;;;;;;;7.53;77.15;102785.94;5063779;28;20028;-65
2022/03/25 00:39:57;;;;;;;59.08;41.60;;;;;;;7.40;77.51;102789.75;5062994;28;20085;-64
2022/03/25 00:42:22;;;;;;;66.07;44.63;;;;;;;7.31;78.50;102784.91;5062449;28;20036;-65
2022/03/25 00:44:48;;;;;;;61.50;42.53;;;;;;;7.23;79.04;102787.19;5064062;28;20097;-65
2022/03/25 00:47:14;;;;;;;61.42;44.35;;;;;;;7.11;79.64;102789.22;5061636;28;20017;-64
2022/03/25 00:49:39;;;;;;;60.17;43.35;;;;;;;6.94;80.59;102789.25;5057159;28;20486;-65
2022/03/25 00:52:05;;;;;;;64.40;45.00;;;;;;;6.87;81.68;102784.50;5063815;28;20036;-66
2022/03/25 00:54:30;;;;;;;60.50;45.17;;;;;;;6.83;82.77;102777.31;5062435;28;20025;-65
2022/03/25 00:56:56;;;;;;;64.75;45.83;;;;;;;6.85;82.91;102778.28;5062696;28;20109;-66
2022/03/25 00:59:22;;;;;;;69.10;46.55;;;;;;;6.83;82.65;102782.59;5063391;28;20043;-66
2022/03/25 01:01:47;;;;;;;62.25;44.20;;;;;;;6.71;84.16;102780.19;5061728;28;20025;-66
2022/03/25 01:04:13;;;;;;;63.47;44.38;;;;;;;6.54;85.20;102779.38;5064311;28;20024;-66
2022/03/25 01:06:38;;;;;;;65.20;44.85;;;;;;;6.47;86.78;102773.72;5061152;28;20025;-65
2022/03/25 01:09:05;;;;;;;65.88;44.28;;;;;;;6.61;88.13;102784.13;5063694;28;20051;-66
2022/03/25 01:11:31;;;;;;;61.20;45.65;;;;;;;6.58;87.83;102781.34;5062253;28;20111;-66
2022/03/25 01:13:58;;;;;;;65.90;45.83;;;;;;;6.49;87.61;102780.84;5062624;28;20095;-65
2022/03/25 01:16:24;;;;;;;63.28;45.15;;;;;;;6.47;87.33;102784.22;5063400;28;20020;-64
2022/03/25 01:18:49;;;;;;;63.83;45.55;;;;;;;6.29;88.28;102782.41;5061589;28;20035;-64
2022/03/25 01:21:16;;;;;;;62.67;45.85;;;;;;;6.28;89.13;102781.53;5064184;28;20028;-65
2022/03/25 01:23:41;;;;;;;64.47;44.17;;;;;;;6.27;89.10;102782.34;5060976;28;20032;-64
2022/03/25 01:26:07;;;;;;;63.13;45.33;;;;;;;6.15;89.33;102784.31;5046054;28;20097;-64
2022/03/25 01:28:34;;;;;;;63.35;44.35;;;;;;;6.17;88.91;102790.53;5061799;28;20028;-64
2022/03/25 01:31:03;;;;;;;67.45;45.97;;;;;;;6.24;90.52;102782.16;5062648;28;20044;-64
2022/03/25 01:33:30;;;;;;;68.45;47.17;;;;;;;6.23;90.39;102782.09;5062090;28;20546;-64
2022/03/25 01:35:58;;;;;;;61.10;42.95;;;;;;;6.25;88.88;102775.22;5062056;28;20029;-64
2022/03/25 01:38:25;;;;;;;66.50;45.75;;;;;;;6.15;89.50;102779.06;5062834;28;20021;-66
2022/03/25 01:40:51;;;;;;;62.35;44.20;;;;;;;6.26;88.33;102775.28;5061424;28;20017;-66
2022/03/25 01:43:17;;;;;;;62.47;44.65;;;;;;;6.13;88.43;102774.53;5067518;28;20065;-66
2022/03/25 01:45:42;;;;;;;60.28;43.03;;;;;;;6.13;88.55;102777.19;5064812;28;20037;-66
2022/03/25 01:48:12;;;;;;;61.03;42.90;;;;;;;6.02;89.44;102769.63;5068001;28;20353;-67
2022/03/25 01:50:39;;;;;;;62.08;42.85;;;;;;;6.13;89.31;102775.47;5064798;28;20028;-66
2022/03/25 01:53:11;;;;;;;60.53;43.13;;;;;;;5.84;89.28;102780.00;5067487;28;20560;-65
2022/03/25 01:55:38;;;;;;;62.75;45.05;;;;;;;5.81;89.63;102774.59;5064868;28;20034;-66
2022/03/25 01:58:05;;;;;;;61.80;43.10;;;;;;;5.80;89.79;102778.03;5067098;28;20163;-66
2022/03/25 02:00:30;;;;;;;62.42;44.00;;;;;;;5.68;91.00;102777.34;5065771;28;20020;-66
2022/03/25 02:02:56;;;;;;;63.83;44.72;;;;;;;5.86;91.24;102781.00;5065811;28;20040;-66
2022/03/25 02:05:21;;;;;;;63.90;44.15;;;;;;;5.94;90.77;102777.06;5066620;28;20029;-65
2022/03/25 02:07:47;;;;;;;61.38;43.67;;;;;;;5.94;90.38;102779.69;5064800;28;20078;-66
2022/03/25 02:10:13;;;;;;;61.83;42.17;;;;;;;6.04;89.63;102777.59;5067719;28;20032;-66
2022/03/25 02:12:39;;;;;;;63.90;44.85;;;;;;;6.00;89.07;102779.16;5064415;28;20029;-67
2022/03/25 02:15:05;;;;;;;61.42;43.58;;;;;;;5.94;89.76;102782.31;5066917;28;20037;-67
2022/03/25 02:17:31;;;;;;;56.38;40.33;;;;;;;6.01;88.60;102777.44;5065398;28;20032;-64
2022/03/25 02:19:57;;;;;;;61.88;42.03;;;;;;;6.06;87.73;102779.47;5047575;28;20384;-66
2022/03/25 02:22:22;;;;;;;59.42;41.70;;;;;;;6.05;86.83;102774.16;5066480;28;20352;-66
2022/03/25 02:24:49;;;;;;;57.47;41.15;;;;;;;6.02;86.18;102774.00;5064142;28;20029;-66
2022/03/25 02:27:16;;;;;;;57.28;39.75;;;;;;;6.05;85.52;102772.41;5067572;28;20025;-65
2022/03/25 02:29:45;;;;;;;59.05;40.50;;;;;;;6.05;84.64;102774.16;5060258;28;20021;-65
2022/03/25 02:32:11;;;;;;;55.78;38.75;;;;;;;6.02;84.08;102768.75;5058436;28;20056;-66
2022/03/25 02:34:38;;;;;;;55.25;38.00;;;;;;;5.98;83.67;102772.91;5065658;28;20025;-66
2022/03/25 02:37:05;;;;;;;55.20;39.22;;;;;;;5.97;83.42;102771.13;5063464;28;20107;-66
2022/03/25 02:39:31;;;;;;;57.33;39.20;;;;;;;5.88;83.00;102771.50;5064648;28;20025;-66
2022/03/25 02:41:57;;;;;;;55.30;38.92;;;;;;;5.89;82.53;102765.41;5064279;28;20031;-66
2022/03/25 02:44:22;;;;;;;54.72;37.88;;;;;;;5.82;81.78;102770.25;5063709;28;20033;-66
2022/03/25 02:46:48;;;;;;;54.60;38.67;;;;;;;5.73;81.92;102765.41;5065511;28;20493;-66
2022/03/25 02:49:14;;;;;;;54.45;38.15;;;;;;;5.82;82.44;102765.00;5062415;28;20067;-66
2022/03/25 02:51:40;;;;;;;56.50;38.40;;;;;;;5.80;81.72;102772.78;5065637;28;20021;-66
2022/03/25 02:54:05;;;;;;;54.78;38.83;;;;;;;5.77;81.65;102772.63;5062470;28;20199;-66
2022/03/25 02:56:31;;;;;;;54.90;37.92;;;;;;;5.71;81.58;102773.19;5064506;28;20087;-66
2022/03/25 02:58:56;;;;;;;54.42;38.90;;;;;;;5.64;81.50;102763.16;5064094;28;20021;-64
2022/03/25 03:01:21;;;;;;;55.00;38.58;;;;;;;5.45;81.71;102768.22;5063024;28;20095;-66
2022/03/25 03:03:47;;;;;;;54.42;37.83;;;;;;;5.33;82.17;102771.03;5065424;28;20016;-66
2022/03/25 03:06:12;;;;;;;54.83;37.55;;;;;;;5.24;82.51;102769.72;5062280;28;20017;-66
2022/03/25 03:08:37;;;;;;;55.83;38.10;;;;;;;5.14;82.73;102775.25;5064817;28;20475;-66
2022/03/25 03:11:04;;;;;;;58.15;39.13;;;;;;;5.08;83.98;102774.88;5065487;28;20021;-64
2022/03/25 03:13:29;;;;;;;56.25;39.25;;;;;;;5.07;85.03;102775.72;5063506;28;20047;-65
2022/03/25 03:15:55;;;;;;;56.03;39.45;;;;;;;5.05;85.13;102778.25;5063134;28;20028;-66
2022/03/25 03:18:20;;;;;;;54.42;38.00;;;;;;;5.02;85.16;102774.53;5064857;28;20024;-66
2022/03/25 03:20:46;;;;;;;55.80;39.28;;;;;;;4.97;85.10;102783.88;5061764;28;20075;-66
2022/03/25 03:23:12;;;;;;;55.97;39.45;;;;;;;4.91;84.71;102780.84;5057630;28;20028;-67
2022/03/25 03:25:38;;;;;;;56.97;39.28;;;;;;;4.71;85.01;102780.59;5065089;28;20040;-67
2022/03/25 03:28:04;;;;;;;57.15;40.08;;;;;;;4.65;86.12;102775.00;5062815;28;20025;-67
2022/03/25 03:30:30;;;;;;;55.80;39.97;;;;;;;4.51;86.66;102782.03;5063428;28;20037;-67
2022/03/25 03:32:57;;;;;;;55.65;38.92;;;;;;;4.48;86.75;102781.84;5027291;28;1068453;-67
2022/03/25 03:35:26;;;;;;;59.00;40.42;;;;;;;4.57;87.31;102773.63;5063453;28;20037;-67
2022/03/25 03:37:53;;;;;;;56.10;39.33;;;;;;;4.47;87.42;102783.56;5065082;28;20514;-67
2022/03/25 03:40:18;;;;;;;56.40;39.65;;;;;;;4.51;87.89;102782.97;5063201;28;20025;-67
2022/03/25 03:42:45;;;;;;;54.60;38.97;;;;;;;4.40;87.79;102778.78;5065904;28;20020;-67
2022/03/25 03:45:11;;;;;;;55.90;38.22;;;;;;;4.41;88.46;102775.31;5062469;28;20029;-67
2022/03/25 03:47:38;;;;;;;58.08;40.20;;;;;;;4.55;88.42;102773.53;5065299;28;20472;-67
2022/03/25 03:50:06;;;;;;;58.53;39.70;;;;;;;4.48;88.70;102781.84;5063265;28;20071;-67
2022/03/25 03:52:31;;;;;;;56.85;39.60;;;;;;;4.39;88.36;102778.69;5064501;28;20025;-65
2022/03/25 03:54:57;;;;;;;56.00;38.78;;;;;;;4.43;87.84;102778.97;5064476;28;20027;-67
2022/03/25 03:57:23;;;;;;;57.03;39.83;;;;;;;4.32;87.77;102785.25;5063222;28;20056;-66
2022/03/25 03:59:48;;;;;;;55.60;39.47;;;;;;;4.17;88.05;102780.88;5065448;28;20517;-66
2022/03/25 04:02:14;;;;;;;56.72;39.60;;;;;;;4.06;88.30;102784.56;5062071;28;20063;-66
2022/03/25 04:04:39;;;;;;;58.70;39.95;;;;;;;3.97;88.64;102782.25;5064321;28;20052;-66
2022/03/25 04:07:05;;;;;;;60.05;41.83;;;;;;;3.93;90.23;102776.75;5062970;28;20020;-66
2022/03/25 04:09:30;;;;;;;57.30;39.53;;;;;;;3.90;90.60;102779.19;5063660;28;20103;-66
2022/03/25 04:11:55;;;;;;;57.10;40.47;;;;;;;3.92;91.76;102778.47;5064152;28;20107;-66
2022/03/25 04:14:21;;;;;;;57.35;41.10;;;;;;;3.83;92.08;102777.91;5062565;28;20024;-66
2022/03/25 04:16:47;;;;;;;58.40;39.88;;;;;;;3.88;92.22;102780.81;5065072;28;20064;-65
2022/03/25 04:19:13;;;;;;;58.08;39.75;;;;;;;3.81;92.94;102779.50;5061781;28;20182;-66
2022/03/25 04:21:38;;;;;;;59.17;39.97;;;;;;;3.73;92.18;102784.28;5064860;28;20017;-67
2022/03/25 04:24:04;;;;;;;57.35;39.83;;;;;;;3.63;93.22;102782.78;5062435;28;20037;-66
2022/03/25 04:26:30;;;;;;;54.22;37.97;;;;;;;3.47;93.53;102788.72;5063235;28;20021;-66
2022/03/25 04:28:55;;;;;;;58.03;39.13;;;;;;;3.36;94.18;102789.75;5064180;28;20460;-67
2022/03/25 04:31:21;;;;;;;57.67;39.70;;;;;;;3.23;95.65;102797.59;5062113;28;20017;-66
2022/03/25 04:33:46;;;;;;;56.33;38.95;;;;;;;3.25;96.74;102796.00;5064777;28;20097;-64
2022/03/25 04:36:13;;;;;;;53.13;37.35;;;;;;;3.04;97.87;102796.38;5057626;28;20385;-65
2022/03/25 04:38:38;;;;;;;55.35;38.72;;;;;;;3.01;99.23;102806.63;5064361;28;20025;-65
2022/03/25 04:41:03;;;;;;;55.42;38.10;;;;;;;3.00;100.00;102796.06;5062489;28;20022;-66
2022/03/25 04:43:29;;;;;;;55.10;38.40;;;;;;;3.12;100.00;102796.91;5062907;28;20437;-65
2022/03/25 04:45:54;;;;;;;54.38;38.00;;;;;;;2.95;100.00;102801.00;5063726;28;20034;-65
2022/03/25 04:48:20;;;;;;;54.78;37.42;;;;;;;3.07;100.00;102800.91;5061932;28;20345;-64
2022/03/25 04:50:45;;;;;;;53.92;37.58;;;;;;;2.94;100.00;102793.97;5064623;28;20036;-65
2022/03/25 04:53:11;;;;;;;57.13;37.88;;;;;;;2.92;100.00;102799.09;5061170;28;20456;-65
2022/03/25 04:55:37;;;;;;;54.67;37.95;;;;;;;3.01;100.00;102798.78;5064215;28;20036;-66
2022/03/25 04:58:02;;;;;;;55.60;37.00;;;;;;;3.03;100.00;102798.88;5062195;28;20025;-65
2022/03/25 05:00:28;;;;;;;55.28;38.35;;;;;;;2.97;100.00;102802.91;5062728;28;20075;-65
2022/03/25 05:02:53;;;;;;;54.78;37.45;;;;;;;2.96;100.00;102800.22;5063812;28;20043;-65
2022/03/25 05:05:19;;;;;;;57.45;39.08;;;;;;;2.97;100.00;102805.53;5061341;28;20380;-65
2022/03/25 05:07:47;;;;;;;53.08;36.65;;;;;;;2.84;100.00;102812.44;5064628;28;20020;-65
2022/03/25 05:10:14;;;;;;;58.30;40.50;;;;;;;3.00;100.00;102804.84;5039093;28;20025;-65
2022/03/25 05:12:40;;;;;;;55.10;39.03;;;;;;;2.92;100.00;102801.69;5063909;28;20021;-66
2022/03/25 05:15:06;;;;;;;61.28;39.85;;;;;;;2.99;100.00;102804.75;5061473;28;20025;-65
2022/03/25 05:17:32;;;;;;;58.72;39.75;;;;;;;2.87;100.00;102807.41;5062997;28;20468;-65
2022/03/25 05:19:57;;;;;;;59.00;40.83;;;;;;;2.82;100.00;102806.22;5062728;28;20024;-65
2022/03/25 05:22:23;;;;;;;57.38;40.22;;;;;;;2.74;100.00;102811.81;5061784;28;20063;-65
2022/03/25 05:24:49;;;;;;;57.28;38.83;;;;;;;2.77;100.00;102809.41;5064034;28;20028;-65
2022/03/25 05:27:14;;;;;;;59.20;41.08;;;;;;;2.77;100.00;102805.91;5060620;28;20036;-66
2022/03/25 05:29:39;;;;;;;57.28;40.13;;;;;;;2.77;100.00;102805.91;5063729;28;20441;-65
2022/03/25 05:32:06;;;;;;;62.33;40.33;;;;;;;2.79;100.00;102806.91;5061592;28;20036;-65
2022/03/25 05:34:31;;;;;;;61.25;41.10;;;;;;;2.74;100.00;102817.06;5062477;28;20099;-66
2022/03/25 05:36:56;;;;;;;57.72;39.70;;;;;;;2.83;100.00;102810.66;5063169;28;20031;-66
2022/03/25 05:39:22;;;;;;;60.03;40.47;;;;;;;2.81;100.00;102813.16;5061198;28;20021;-66
2022/03/25 05:41:47;;;;;;;59.00;40.13;;;;;;;2.73;100.00;102810.00;5063839;28;20035;-66
2022/03/25 05:44:12;;;;;;;61.00;40.80;;;;;;;2.72;100.00;102817.75;5060704;28;20533;-65
2022/03/25 05:46:38;;;;;;;59.78;40.08;;;;;;;2.73;100.00;102822.16;5063519;28;20029;-66
2022/03/25 05:49:04;;;;;;;62.67;41.85;;;;;;;2.62;100.00;102818.81;5061873;28;20043;-66
2022/03/25 05:51:30;;;;;;;68.63;41.85;;;;;;;2.57;100.00;102828.94;5062356;28;20021;-66
2022/03/25 05:53:56;;;;;;;72.20;40.92;;;;;;;2.65;100.00;102816.44;5062668;28;20497;-66
2022/03/25 05:56:21;;;;;;;63.80;40.90;;;;;;;2.60;100.00;102823.03;5060910;28;20439;-66
2022/03/25 05:58:46;;;;;;;70.38;41.22;;;;;;;2.68;100.00;102826.16;5063954;28;20029;-66
2022/03/25 06:01:13;;;;;;;64.72;41.45;;;;;;;2.71;100.00;102829.91;5060347;28;20060;-66
2022/03/25 06:03:38;;;;;;;60.40;40.20;;;;;;;2.76;100.00;102825.88;5063409;28;20060;-66
2022/03/25 06:06:05;;;;;;;61.92;40.08;;;;;;;2.75;100.00;102823.16;5061637;28;20056;-66
2022/03/25 06:08:31;;;;;;;66.78;41.53;;;;;;;2.73;100.00;102833.50;5062179;28;20469;-66
2022/03/25 06:10:59;;;;;;;63.75;40.92;;;;;;;2.80;100.00;102829.63;5062300;28;20460;-66
2022/03/25 06:13:25;;;;;;;61.08;41.83;;;;;;;2.85;100.00;102837.78;5042664;28;20138;-66
2022/03/25 06:15:50;;;;;;;60.42;40.45;;;;;;;2.87;100.00;102834.47;5063476;28;20442;-66
2022/03/25 06:18:16;;;;;;;60.03;39.97;;;;;;;2.91;100.00;102844.31;5060423;28;20033;-66
2022/03/25 06:20:42;;;;;;;62.92;42.13;;;;;;;2.89;100.00;102839.78;5063944;28;20040;-66
2022/03/25 06:23:08;;;;;;;63.30;41.60;;;;;;;2.92;100.00;102837.38;5060866;28;20107;-66
2022/03/25 06:25:33;;;;;;;62.80;41.35;;;;;;;3.00;100.00;102840.50;5062596;28;20067;-66
2022/03/25 06:28:01;;;;;;;62.00;41.28;;;;;;;3.07;100.00;102848.88;5063876;28;20508;-64
2022/03/25 06:30:33;;;;;;;58.95;40.67;;;;;;;3.08;100.00;102844.53;5065247;28;20033;-65
2022/03/25 06:32:58;;;;;;;62.20;42.00;;;;;;;3.08;100.00;102849.78;5065567;28;20425;-65
2022/03/25 06:35:24;;;;;;;60.03;41.00;;;;;;;3.25;100.00;102859.63;5057501;28;20031;-66
2022/03/25 06:37:51;;;;;;;62.42;41.40;;;;;;;3.35;100.00;102858.53;5058281;28;20483;-65
2022/03/25 06:40:19;;;;;;;63.92;43.45;;;;;;;3.47;100.00;102856.72;5056662;28;20059;-65
2022/03/25 06:42:45;;;;;;;69.00;44.30;;;;;;;3.62;100.00;102861.16;5034805;28;20060;-65
2022/03/25 06:45:12;;;;;;;67.88;45.83;;;;;;;3.75;100.00;102863.75;5050365;28;20120;-65
2022/03/25 06:47:38;;;;;;;68.15;46.55;;;;;;;3.86;100.00;102861.84;5058921;28;20029;-65
2022/03/25 06:50:08;;;;;;;67.57;46.60;;;;;;;3.96;100.00;102853.75;5055661;28;20067;-64
2022/03/25 06:52:34;;;;;;;75.65;49.90;;;;;;;4.10;100.00;102848.47;5057269;28;20493;-64
2022/03/25 06:55:00;;;;;;;72.05;48.78;;;;;;;4.22;100.00;102853.56;5055530;28;20033;-63
2022/03/25 06:57:25;;;;;;;73.93;50.08;;;;;;;4.34;100.00;102859.59;5055866;28;20540;-65
2022/03/25 06:59:51;;;;;;;78.97;51.47;;;;;;;4.45;100.00;102861.13;5056612;28;20031;-65
2022/03/25 07:02:17;;;;;;;76.45;51.53;;;;;;;4.58;100.00;102867.16;5057105;28;20078;-65
2022/03/25 07:04:43;;;;;;;77.13;52.90;;;;;;;4.74;100.00;102867.25;5054156;28;20123;-63
2022/03/25 07:07:09;;;;;;;80.80;53.08;;;;;;;4.86;100.00;102875.88;5058016;28;20092;-63
2022/03/25 07:09:35;;;;;;;82.70;52.35;;;;;;;4.98;100.00;102874.78;5054750;28;20044;-64
2022/03/25 07:12:01;;;;;;;76.32;51.67;;;;;;;5.09;100.00;102867.56;5053766;28;20021;-63
2022/03/25 07:14:27;;;;;;;82.00;54.95;;;;;;;5.16;100.00;102870.63;5054258;28;20111;-65
2022/03/25 07:16:52;;;;;;;76.78;51.83;;;;;;;5.30;100.00;102866.19;5053581;28;20436;-64
2022/03/25 07:19:18;;;;;;;79.72;53.58;;;;;;;5.44;99.81;102871.34;5050301;28;20029;-64
2022/03/25 07:21:44;;;;;;;81.97;53.78;;;;;;;5.51;97.79;102877.00;5055064;28;20029;-64
2022/03/25 07:24:09;;;;;;;77.93;54.25;;;;;;;5.64;96.46;102880.38;5032937;28;20047;-64
2022/03/25 07:26:35;;;;;;;82.72;54.20;;;;;;;5.72;94.85;102890.47;5055128;28;20372;-64
2022/03/25 07:29:00;;;;;;;86.53;55.60;;;;;;;5.84;95.21;102890.25;5056177;28;20097;-64
2022/03/25 07:31:28;;;;;;;80.53;54.00;;;;;;;5.96;95.50;102891.78;5055209;28;20460;-65
2022/03/25 07:33:56;;;;;;;79.72;54.80;;;;;;;6.03;93.74;102894.84;5049456;28;20064;-65
2022/03/25 07:36:22;;;;;;;83.85;55.75;;;;;;;6.19;93.22;102886.09;5053319;28;20037;-65
2022/03/25 07:38:47;;;;;;;78.50;55.00;;;;;;;6.31;91.57;102883.22;5051215;28;20403;-66
2022/03/25 07:41:13;;;;;;;77.75;53.47;;;;;;;6.49;90.81;102888.56;5048578;28;20421;-65
2022/03/25 07:43:39;;;;;;;78.60;51.92;;;;;;;6.73;88.09;102891.59;5050515;28;20492;-66
2022/03/25 07:46:05;;;;;;;76.97;52.83;;;;;;;6.94;86.13;102894.44;5033069;28;20021;-65
2022/03/25 07:48:30;;;;;;;77.65;55.03;;;;;;;7.07;84.56;102901.25;5049178;28;20029;-65
2022/03/25 07:50:56;;;;;;;79.05;55.78;;;;;;;7.21;83.10;102904.59;5053828;28;20067;-64
2022/03/25 07:53:21;;;;;;;77.53;53.80;;;;;;;7.45;82.44;102909.28;5055575;28;20082;-65
2022/03/25 07:55:50;;;;;;;82.35;55.00;;;;;;;7.63;81.45;102914.53;5032470;28;20035;-66
2022/03/25 07:58:21;;;;;;;78.50;54.75;;;;;;;7.83;78.95;102918.16;5057295;28;20032;-65
2022/03/25 08:00:48;;;;;;;76.88;53.10;;;;;;;8.17;76.93;102922.44;5051938;28;20043;-65
2022/03/25 08:03:14;;;;;;;72.93;52.67;;;;;;;8.30;76.05;102919.53;5051605;28;20024;-65
2022/03/25 08:05:40;;;;;;;75.72;53.38;;;;;;;8.43;74.25;102922.72;5060943;28;20527;-65
2022/03/25 08:08:05;;;;;;;72.57;50.78;;;;;;;8.54;72.52;102924.16;5057304;28;20082;-65
2022/03/25 08:10:32;;;;;;;72.13;51.17;;;;;;;8.66;72.08;102937.91;5054815;28;20040;-65
2022/03/25 08:13:02;;;;;;;69.63;51.35;;;;;;;8.64;70.18;102934.31;5058270;28;20021;-65
2022/03/25 08:15:29;;;;;;;71.97;51.20;;;;;;;8.81;69.34;102936.78;5054000;28;20470;-65
2022/03/25 08:17:57;;;;;;;68.22;49.65;;;;;;;8.98;68.16;102933.16;5057772;28;20033;-65
2022/03/25 08:20:26;;;;;;;66.57;49.03;;;;;;;9.10;68.08;102924.91;5053107;28;20447;-65
2022/03/25 08:22:53;;;;;;;66.80;49.30;;;;;;;9.26;66.47;102934.34;5058399;28;20044;-65
2022/03/25 08:28:03;;;;;;;68.28;48.67;;;;;;;9.72;64.79;102938.94;5057016;28;20031;-65
2022/03/25 08:30:30;;;;;;;65.80;48.80;;;;;;;10.05;62.90;102949.09;5056150;28;20125;-65
2022/03/25 08:32:57;;;;;;;63.20;47.65;;;;;;;10.63;61.98;102939.91;5056192;28;20133;-65
2022/03/25 08:35:24;;;;;;;65.45;47.50;;;;;;;11.03;60.16;102936.91;5054489;28;20120;-65
2022/03/25 08:37:49;;;;;;;64.35;46.80;;;;;;;11.37;58.46;102946.91;5057082;28;20040;-65
2022/03/25 08:40:15;;;;;;;63.03;45.58;;;;;;;11.67;56.64;102946.16;5056778;28;20047;-65
2022/03/25 08:42:40;;;;;;;58.95;45.45;;;;;;;11.98;55.99;102941.91;5059167;28;20116;-65
2022/03/25 08:45:06;;;;;;;59.10;44.75;;;;;;;12.06;54.19;102953.66;5054389;28;20375;-65
2022/03/25 08:47:31;;;;;;;61.72;45.28;;;;;;;12.12;53.68;102943.22;5056898;28;20414;-65
2022/03/25 08:49:56;;;;;;;60.58;44.35;;;;;;;12.19;54.15;102947.00;5056126;28;20025;-65
2022/03/25 08:52:22;;;;;;;60.95;44.42;;;;;;;12.30;54.09;102939.34;5057531;28;20373;-65
2022/03/25 08:54:48;;;;;;;58.35;44.00;;;;;;;12.71;53.59;102952.94;5033229;28;20037;-65
2022/03/25 08:57:13;;;;;;;59.92;42.33;;;;;;;13.25;50.66;102952.69;5057376;28;20020;-65
2022/03/25 08:59:38;;;;;;;57.67;43.17;;;;;;;13.78;49.01;102954.06;5058544;28;20080;-65
2022/03/25 09:02:04;;;;;;;61.33;43.80;;;;;;;14.16;46.56;102955.84;5055193;28;20120;-65
2022/03/25 09:04:30;;;;;;;56.80;43.15;;;;;;;14.37;45.73;102948.34;5051408;28;20033;-65
2022/03/25 09:06:55;;;;;;;57.92;42.65;;;;;;;14.67;45.94;102959.63;5046524;28;20051;-65
2022/03/25 09:09:21;;;;;;;57.00;41.47;;;;;;;15.04;45.80;102963.91;5053428;28;20028;-65
2022/03/25 09:11:47;;;;;;;56.55;39.92;;;;;;;15.55;44.01;102964.84;5035272;28;20025;-65
2022/03/25 09:14:14;;;;;;;55.03;41.15;;;;;;;15.88;42.42;102963.66;5054456;28;20379;-65
2022/03/25 09:16:39;;;;;;;57.13;41.80;;;;;;;16.25;41.68;102955.28;5051544;28;20025;-65
2022/03/25 09:19:05;;;;;;;54.97;40.30;;;;;;;16.66;40.56;102965.63;5059616;28;20028;-65
2022/03/25 09:21:30;;;;;;;53.70;39.10;;;;;;;16.84;40.07;102965.84;5058218;28;20021;-65
2022/03/25 09:23:55;;;;;;;53.83;39.72;;;;;;;17.35;39.20;102974.44;5052774;28;20483;-65
2022/03/25 09:26:21;;;;;;;53.30;38.50;;;;;;;17.77;37.45;102965.00;5056726;28;20032;-65
2022/03/25 09:28:46;;;;;;;52.33;37.47;;;;;;;18.24;36.18;102965.38;5055237;28;20101;-65
2022/03/25 09:31:12;;;;;;;50.17;36.38;;;;;;;18.58;34.21;102969.13;5057266;28;20471;-65
2022/03/25 09:33:37;;;;;;;50.45;37.30;;;;;;;18.88;33.45;102966.59;5056333;28;20128;-65
2022/03/25 09:36:03;;;;;;;50.70;35.45;;;;;;;18.71;33.07;102969.16;5057935;28;20492;-65
2022/03/25 09:38:28;;;;;;;48.97;36.17;;;;;;;18.81;32.57;102966.53;5056503;28;20028;-65
2022/03/25 09:40:57;;;;;;;48.83;35.35;;;;;;;18.77;32.80;102964.72;5058554;28;20035;-65
2022/03/25 09:43:22;;;;;;;46.38;33.50;;;;;;;19.12;31.59;102966.66;5058726;28;20403;-65
2022/03/25 09:45:48;;;;;;;47.92;34.60;;;;;;;19.31;31.49;102962.22;5053913;28;20052;-65
2022/03/25 09:48:13;;;;;;;45.15;32.42;;;;;;;19.71;30.78;102961.31;5054874;28;20439;-65
2022/03/25 09:50:40;;;;;;;44.20;31.10;;;;;;;20.06;30.47;102962.22;5051130;28;20103;-65
2022/03/25 09:53:07;;;;;;;44.38;31.08;;;;;;;20.29;29.53;102963.06;5053651;28;20112;-65
2022/03/25 09:55:36;;;;;;;44.20;32.03;;;;;;;20.60;28.90;102962.06;5052673;28;20540;-65
2022/03/25 09:58:01;;;;;;;46.00;30.95;;;;;;;21.13;27.55;102960.91;5057924;28;20025;-65
2022/03/25 10:00:27;;;;;;;43.58;28.75;;;;;;;21.28;27.66;102948.28;5055807;28;20530;-65
2022/03/25 10:02:52;;;;;;;42.03;28.23;;;;;;;21.44;28.19;102959.81;5052339;28;20091;-65
2022/03/25 10:05:22;;;;;;;39.72;28.48;;;;;;;21.69;27.60;102958.69;5037262;28;20381;-65
2022/03/25 10:07:49;;;;;;;40.78;27.98;;;;;;;21.51;26.87;102949.00;5058595;28;20060;-65
2022/03/25 10:10:20;;;;;;;39.92;28.25;;;;;;;21.84;26.38;102954.97;5058147;28;20029;-65
2022/03/25 10:12:51;;;;;;;43.20;28.75;;;;;;;21.85;26.57;102959.47;5058620;28;20040;-65
2022/03/25 10:15:20;;;;;;;40.95;26.58;;;;;;;22.36;25.81;102955.38;5055922;28;20051;-65
2022/03/25 10:17:56;;;;;;;39.17;26.23;;;;;;;22.75;25.71;102955.78;5036703;28;20033;-66
2022/03/25 10:20:27;;;;;;;41.33;28.00;;;;;;;22.89;25.29;102947.47;5038963;28;20040;-65
2022/03/25 10:23:12;;;;;;;39.00;28.02;;;;;;;23.32;24.32;102958.53;5060544;28;20163;-65
2022/03/25 10:26:00;;;;;;;39.20;26.92;;;;;;;24.01;24.40;102951.09;5057489;28;20040;-65
2022/03/25 10:28:28;;;;;;;39.45;26.17;;;;;;;23.94;23.04;102949.44;5057766;28;20021;-67
2022/03/25 10:30:59;;;;;;;41.30;25.77;;;;;;;24.38;22.85;102954.88;5038948;28;20383;-65
2022/03/25 10:33:36;;;;;;;42.15;26.70;;;;;;;24.64;22.68;102948.94;5044982;28;20046;-65
2022/03/25 10:36:07;;;;;;;39.65;25.10;;;;;;;24.25;22.16;102940.72;5057087;28;20033;-65
2022/03/25 10:38:43;;;;;;;39.50;26.37;;;;;;;24.71;22.45;102950.59;5037985;28;20021;-64
2022/03/25 10:41:10;;;;;;;38.85;26.60;;;;;;;24.71;21.70;102945.19;5060235;28;20021;-65
2022/03/25 10:44:08;;;;;;;40.72;26.75;;;;;;;25.61;22.25;102943.03;5059673;28;20047;-64
2022/03/25 10:46:40;;;;;;;36.25;24.25;;;;;;;25.50;21.24;102939.72;5059249;28;20036;-65
2022/03/25 10:49:06;;;;;;;;;;;;;;;26.80;22.35;102937.00;5053602;28;20118;-65
2022/03/25 10:51:33;;;;;;;38.70;27.08;;;;;;;26.42;19.68;102937.22;5058698;28;19920;-65
2022/03/25 10:54:07;;;;;;;39.90;26.45;;;;;;;26.53;20.76;102939.63;5055252;28;20458;-65
2022/03/25 10:56:45;;;;;;;37.03;23.73;;;;;;;26.80;19.69;102939.72;5032462;28;20032;-65
2022/03/25 10:59:29;;;;;;;38.35;26.30;;;;;;;26.82;20.59;102935.13;5055075;28;20390;-64
2022/03/25 11:02:03;;;;;;;39.70;26.33;;;;;;;26.77;19.51;102938.00;5061829;28;20028;-65
2022/03/25 11:04:29;;;;;;;39.22;26.10;;;;;;;27.45;18.92;102938.53;5054409;28;20025;-65
2022/03/25 11:06:55;;;;;;;38.88;26.08;;;;;;;27.87;18.38;102928.91;5059307;28;20123;-65
2022/03/25 11:09:21;;;;;;;37.58;25.38;;;;;;;28.46;18.72;102933.09;5058965;28;20103;-64
2022/03/25 11:11:49;;;;;;;38.58;26.17;;;;;;;27.63;17.97;102934.28;5060512;28;20032;-66
2022/03/25 11:14:15;;;;;;;37.20;24.15;;;;;;;27.09;18.75;102922.50;5055115;28;20025;-67